Airfield :
LOGIN :

Register | Disclaimer

   EN    FR    IT 

 










Legend :    VFR   Marginal VFR   IFR   Intensive IFR   Very Intensive IFR
Visi :
Ceiling :
>= 8 km
>= 3000ft
5 to 8 km
1000 to 3000 ft
1500m to 5 km
500 to 1000 ft
800 to 1500m
200 to 500 ft
< 800m
< 200 ft
Symbols :   Thunderstorms  Fog  Heavy snow  Heavy precipitations  Wind > 20 kt
SIGMETs :     Misc.  Thunderstorms  Icing  Turbulence  Mountain Waves  Volcanic Ashes







- Airport Elevation : 856 ft
- IATA code : VGO


LEVX - Vigo Peinador

CURRENT METAR :
  • 152300Z 00000KT 0300 R19/1000U R01/0350N FG VV001 14/14 Q1012 NOSIG

EXPIRED METARs :
  • 152230Z 00000KT 0300 R19/0400N R01/0300N FG VV001 14/14 Q1012 NOSIG
  • 152200Z 21004KT 0300 R19/0600D R01/0325N FG VV001 14/14 Q1012 NOSIG
  • 152130Z 00000KT 0350 R19/1100U R01/0450D FG VV001 15/15 Q1011 NOSIG
  • 152100Z 00000KT 0500 R19/0450N R01/0650D FG VV001 15/15 Q1011 NOSIG
  • 152045Z 00000KT 1800 R19/1400U R01/P2000 BCFG FEW002 BKN003 BKN009 15/15 Q1011 TEMPO 3000 BR BKN010
  • 152030Z 00000KT 6000 FEW002 BKN005 BKN019 15/14 Q1011 TEMPO 3000 BR BKN010

TAF AMD TAF LEVX
Valid from the 15 at 21:00 until the 16 at 18:00 UTC


152101Z 1521/1618 18008KT 6000 SCT005 BKN016 TX20/1612Z TN09/1606Z
TEMPO 1521/1608 3000 BR BKN010
TEMPO 1521/1608 0800 BCFG BKN002
PROB40
TEMPO 1521/1607 0350 FG VV001
No reported NOTAMs for that airfield.



MET'MAP, your aeronautical weather chart ! - Copyright ORBIFLY December 2007 - Disclaimer

ORBIFLY MET'MAP TEAM :

Programming & Development : Alexandra Zaïnal
Concept & Development : Baudouin d'Aumeries
Co-Development & Prog : Marc-Olivier Méhu
Technical & hardware support : Manuel Goepfert

Contact : metmap@orbifly.com




SOURCES & CREDITS :

   NOAA